Time;durP1;ratioP1;P1;durP2;ratioP2;P2;SDS_P1;SDS_P2;PMS_P1;PMS_P2;Temp;Humidity;BMP_temperature;BMP_pressure;BME280_temperature;BME280_humidity;BME280_pressure;Samples;Min_cycle;Max_cycle;Signal;HPM_P1;HPM_P2
2023/12/11 00:02:08;;;;;;;1.30;0.47;;;;;;;;;;5034673;28;20516;-68
2023/12/11 00:04:35;;;;;;;0.90;0.50;;;;;;;;;;5046264;28;21038;-68
2023/12/11 00:07:02;;;;;;;0.70;0.70;;;;;;;;;;5054776;28;20440;-68
2023/12/11 00:09:30;;;;;;;0.80;0.50;;;;;;;;;;5054584;28;20463;-68
2023/12/11 00:11:57;;;;;;;0.68;0.60;;;;;;;;;;5038497;28;20433;-68
2023/12/11 00:14:24;;;;;;;0.73;0.50;;;;;;;;;;5042589;28;20435;-68
2023/12/11 00:16:51;;;;;;;1.38;0.60;;;;;;;;;;5056178;28;20870;-68
2023/12/11 00:19:19;;;;;;;1.98;0.80;;;;;;;;;;5046885;28;20436;-68
2023/12/11 00:21:46;;;;;;;3.13;0.70;;;;;;;;;;5055431;28;20665;-68
2023/12/11 00:24:14;;;;;;;3.35;0.70;;;;;;;;;;5048881;28;20427;-68
2023/12/11 00:26:41;;;;;;;1.23;0.77;;;;;;;;;;5047474;28;20905;-68
2023/12/11 00:29:09;;;;;;;3.42;0.82;;;;;;;;;;5034756;28;20897;-68
2023/12/11 00:31:36;;;;;;;2.30;0.85;;;;;;;;;;5039637;28;20491;-68
2023/12/11 00:34:03;;;;;;;3.72;0.90;;;;;;;;;;5043784;28;20891;-69
2023/12/11 00:36:31;;;;;;;1.73;0.70;;;;;;;;;;5051622;28;20468;-68
2023/12/11 00:38:58;;;;;;;4.07;1.00;;;;;;;;;;5045124;28;20516;-68
2023/12/11 00:41:25;;;;;;;3.10;1.00;;;;;;;;;;5018539;28;20932;-68
2023/12/11 00:43:52;;;;;;;3.40;0.90;;;;;;;;;;5043161;28;20902;-68
2023/12/11 00:46:26;;;;;;;2.25;0.93;;;;;;;;;;5044083;28;20521;-68
2023/12/11 00:48:54;;;;;;;2.35;0.77;;;;;;;;;;5049211;28;20515;-68
2023/12/11 00:51:21;;;;;;;1.67;0.70;;;;;;;;;;5046202;28;20435;-68
2023/12/11 00:53:48;;;;;;;2.92;0.80;;;;;;;;;;5048190;28;20524;-68
2023/12/11 00:56:16;;;;;;;1.73;0.80;;;;;;;;;;5040454;28;20526;-68
2023/12/11 00:58:43;;;;;;;2.10;0.80;;;;;;;;;;5042200;28;20433;-68
2023/12/11 01:01:10;;;;;;;2.08;0.70;;;;;;;;;;5037030;28;20466;-68
2023/12/11 01:03:38;;;;;;;3.35;0.85;;;;;;;;;;5049065;28;20440;-68
2023/12/11 01:06:06;;;;;;;1.90;0.70;;;;;;;;;;5049613;28;20425;-68
2023/12/11 01:08:38;;;;;;;1.07;0.97;;;;;;;;;;5044638;28;20431;-68
2023/12/11 01:11:06;;;;;;;2.50;0.90;;;;;;;;;;5030785;28;20520;-68
2023/12/11 01:13:34;;;;;;;1.95;0.90;;;;;;;;;;5052773;28;20431;-68
2023/12/11 01:16:02;;;;;;;1.00;0.70;;;;;;;;;;5051680;28;20846;-68
2023/12/11 01:18:31;;;;;;;1.53;0.80;;;;;;;;;;5055359;28;20432;-68
2023/12/11 01:20:59;;;;;;;1.40;0.55;;;;;;;;;;5045805;28;20429;-68
2023/12/11 01:23:26;;;;;;;0.60;0.60;;;;;;;;;;5049921;28;20483;-68
2023/12/11 01:25:54;;;;;;;1.70;0.70;;;;;;;;;;5044251;28;20434;-68
2023/12/11 01:28:21;;;;;;;1.38;0.63;;;;;;;;;;5053352;28;20433;-68
2023/12/11 01:30:48;;;;;;;1.30;0.65;;;;;;;;;;5055470;28;20428;-69
2023/12/11 01:33:15;;;;;;;1.53;0.50;;;;;;;;;;5043478;28;20496;-68
2023/12/11 01:35:43;;;;;;;1.00;0.60;;;;;;;;;;5044617;28;20439;-68
2023/12/11 01:38:10;;;;;;;1.20;0.60;;;;;;;;;;5051872;28;20435;-68
2023/12/11 01:40:37;;;;;;;1.38;0.68;;;;;;;;;;5052262;28;20444;-68
2023/12/11 01:43:16;;;;;;;1.38;0.60;;;;;;;;;;5048441;28;20434;-68
2023/12/11 01:45:56;;;;;;;1.10;0.60;;;;;;;;;;5038693;28;20489;-68
2023/12/11 01:48:24;;;;;;;1.58;0.60;;;;;;;;;;5047840;28;20457;-68
2023/12/11 01:50:51;;;;;;;1.05;0.50;;;;;;;;;;5046656;28;20911;-68
2023/12/11 01:53:18;;;;;;;1.15;0.60;;;;;;;;;;5048222;28;20432;-68
2023/12/11 01:55:47;;;;;;;0.83;0.60;;;;;;;;;;5048983;28;20434;-68
2023/12/11 01:58:14;;;;;;;0.82;0.65;;;;;;;;;;5037242;28;20435;-68
2023/12/11 02:00:41;;;;;;;1.15;0.60;;;;;;;;;;5040074;28;20553;-68
2023/12/11 02:03:10;;;;;;;2.30;0.70;;;;;;;;;;5048517;28;20605;-68
2023/12/11 02:05:38;;;;;;;1.30;0.55;;;;;;;;;;5043191;28;20888;-68
2023/12/11 02:08:05;;;;;;;0.93;0.50;;;;;;;;;;5029212;28;20462;-68
2023/12/11 02:10:32;;;;;;;1.45;0.70;;;;;;;;;;5035090;28;20447;-68
2023/12/11 02:12:59;;;;;;;1.83;0.68;;;;;;;;;;5041237;28;20437;-69
2023/12/11 02:15:39;;;;;;;0.50;0.50;;;;;;;;;;5047545;28;20912;-69
2023/12/11 02:18:06;;;;;;;2.15;0.77;;;;;;;;;;5050547;28;20934;-68
2023/12/11 02:20:34;;;;;;;1.55;0.70;;;;;;;;;;5049772;28;20466;-68
2023/12/11 02:23:03;;;;;;;2.67;0.90;;;;;;;;;;5046114;28;20530;-68
2023/12/11 02:25:32;;;;;;;2.53;0.70;;;;;;;;;;5030382;28;20440;-68
2023/12/11 02:27:59;;;;;;;1.70;0.63;;;;;;;;;;5048655;28;20498;-68
2023/12/11 02:30:29;;;;;;;1.60;0.70;;;;;;;;;;5045558;28;20429;-68
2023/12/11 02:32:56;;;;;;;1.40;0.60;;;;;;;;;;5030618;28;20435;-68
2023/12/11 02:35:23;;;;;;;2.47;0.65;;;;;;;;;;5050270;28;20453;-68
2023/12/11 02:37:51;;;;;;;2.97;0.73;;;;;;;;;;5042424;28;20471;-68
2023/12/11 02:40:18;;;;;;;2.83;0.82;;;;;;;;;;5048743;28;20433;-68
2023/12/11 02:42:48;;;;;;;2.70;0.80;;;;;;;;;;5034026;28;20419;-68
2023/12/11 02:45:16;;;;;;;1.00;0.63;;;;;;;;;;5047671;28;21030;-67
2023/12/11 02:47:43;;;;;;;1.63;0.90;;;;;;;;;;5045456;28;20492;-68
2023/12/11 02:50:10;;;;;;;3.30;0.90;;;;;;;;;;5049985;28;21011;-68
2023/12/11 02:52:37;;;;;;;1.27;0.57;;;;;;;;;;5048008;28;20504;-68
2023/12/11 02:55:05;;;;;;;2.58;0.90;;;;;;;;;;5051675;28;20421;-68
2023/12/11 02:57:32;;;;;;;1.80;0.77;;;;;;;;;;5033866;28;20433;-68
2023/12/11 02:59:59;;;;;;;4.75;0.93;;;;;;;;;;5044231;28;20432;-68
2023/12/11 03:02:26;;;;;;;0.93;0.68;;;;;;;;;;5046273;28;21062;-68
2023/12/11 03:04:54;;;;;;;1.10;0.80;;;;;;;;;;5050252;28;20490;-68
2023/12/11 03:07:21;;;;;;;2.57;0.80;;;;;;;;;;5044804;28;20429;-68
2023/12/11 03:09:48;;;;;;;1.97;0.60;;;;;;;;;;5047837;28;20502;-67
2023/12/11 03:12:15;;;;;;;1.90;0.70;;;;;;;;;;5043264;28;20464;-68
2023/12/11 03:14:42;;;;;;;2.00;0.63;;;;;;;;;;5058267;28;20424;-68
2023/12/11 03:17:09;;;;;;;2.20;0.88;;;;;;;;;;5055205;28;20476;-68
2023/12/11 03:19:37;;;;;;;1.42;0.77;;;;;;;;;;5050242;28;20435;-68
2023/12/11 03:22:04;;;;;;;1.88;0.82;;;;;;;;;;5035919;28;20435;-68
2023/12/11 03:24:31;;;;;;;1.80;0.80;;;;;;;;;;5043914;28;20421;-68
2023/12/11 03:26:59;;;;;;;2.35;0.70;;;;;;;;;;5046645;28;20433;-68
2023/12/11 03:29:26;;;;;;;1.13;0.70;;;;;;;;;;5051225;28;20433;-68
2023/12/11 03:31:53;;;;;;;1.65;0.82;;;;;;;;;;5047734;28;20429;-68
2023/12/11 03:34:20;;;;;;;1.10;0.73;;;;;;;;;;5048313;28;20437;-68
2023/12/11 03:36:47;;;;;;;1.65;0.75;;;;;;;;;;5029143;28;20432;-68
2023/12/11 03:39:15;;;;;;;1.15;0.73;;;;;;;;;;5049910;28;20437;-68
2023/12/11 03:41:42;;;;;;;1.15;0.70;;;;;;;;;;5041901;28;20531;-68
2023/12/11 03:44:09;;;;;;;1.10;0.70;;;;;;;;;;5026724;28;20433;-68
2023/12/11 03:46:37;;;;;;;1.42;0.80;;;;;;;;;;5054284;28;20930;-68
2023/12/11 03:49:04;;;;;;;2.10;0.88;;;;;;;;;;5050094;28;20486;-68
2023/12/11 03:51:31;;;;;;;1.65;1.08;;;;;;;;;;5047878;28;20433;-68
2023/12/11 03:54:00;;;;;;;2.33;0.80;;;;;;;;;;5051735;28;20455;-68
2023/12/11 03:56:28;;;;;;;2.47;0.90;;;;;;;;;;5046146;28;20524;-68
2023/12/11 03:58:55;;;;;;;1.67;0.80;;;;;;;;;;5048545;28;20433;-67
2023/12/11 04:01:23;;;;;;;2.15;0.75;;;;;;;;;;5044648;28;20533;-68
2023/12/11 04:03:50;;;;;;;4.55;0.98;;;;;;;;;;5047280;28;20436;-68
2023/12/11 04:06:18;;;;;;;2.30;0.90;;;;;;;;;;5046525;28;20425;-68
2023/12/11 04:08:45;;;;;;;3.88;1.00;;;;;;;;;;5054932;28;20446;-68
2023/12/11 04:11:13;;;;;;;2.20;1.00;;;;;;;;;;5055364;28;20465;-68
2023/12/11 04:13:40;;;;;;;3.33;1.10;;;;;;;;;;5043748;28;20520;-68
2023/12/11 04:16:07;;;;;;;1.60;0.93;;;;;;;;;;5042620;28;20433;-68
2023/12/11 04:18:35;;;;;;;3.33;0.90;;;;;;;;;;5049500;28;20439;-68
2023/12/11 04:21:03;;;;;;;3.95;0.98;;;;;;;;;;5054692;28;20846;-68
2023/12/11 04:23:30;;;;;;;2.90;0.93;;;;;;;;;;5051443;28;20979;-68
2023/12/11 04:25:59;;;;;;;4.53;1.00;;;;;;;;;;5062866;28;20512;-68
2023/12/11 04:28:26;;;;;;;4.00;1.00;;;;;;;;;;5050057;28;20424;-68
2023/12/11 04:30:53;;;;;;;3.63;1.05;;;;;;;;;;5050875;28;20500;-68
2023/12/11 04:33:21;;;;;;;2.73;1.07;;;;;;;;;;5049326;28;20433;-68
2023/12/11 04:35:48;;;;;;;4.68;0.95;;;;;;;;;;5048037;28;20438;-68
2023/12/11 04:38:15;;;;;;;2.58;1.17;;;;;;;;;;5053572;28;20968;-68
2023/12/11 04:40:43;;;;;;;2.58;0.90;;;;;;;;;;5056793;28;20437;-68
2023/12/11 04:43:10;;;;;;;3.42;0.90;;;;;;;;;;5049928;28;20519;-68
2023/12/11 04:45:37;;;;;;;2.85;0.85;;;;;;;;;;5050351;28;20516;-68
2023/12/11 04:48:05;;;;;;;3.40;0.90;;;;;;;;;;5045127;28;20429;-68
2023/12/11 04:50:32;;;;;;;3.90;1.17;;;;;;;;;;5048103;28;20510;-68
2023/12/11 04:52:59;;;;;;;3.70;1.00;;;;;;;;;;5050191;28;20938;-68
2023/12/11 04:55:27;;;;;;;2.05;0.93;;;;;;;;;;5047084;28;20510;-68
2023/12/11 04:57:54;;;;;;;3.57;0.93;;;;;;;;;;5048430;28;20437;-68
2023/12/11 05:00:21;;;;;;;3.13;0.88;;;;;;;;;;5040852;28;20436;-68
2023/12/11 05:02:49;;;;;;;2.83;0.90;;;;;;;;;;5046726;28;20433;-68
2023/12/11 05:05:16;;;;;;;3.50;0.98;;;;;;;;;;5040282;28;20957;-68
2023/12/11 05:07:43;;;;;;;3.07;1.20;;;;;;;;;;5046112;28;20425;-68
2023/12/11 05:10:10;;;;;;;4.10;1.05;;;;;;;;;;5049553;28;20804;-68
2023/12/11 05:12:38;;;;;;;3.72;1.17;;;;;;;;;;5042106;28;20475;-68
2023/12/11 05:15:05;;;;;;;4.28;1.10;;;;;;;;;;5046399;28;20437;-68
2023/12/11 05:17:32;;;;;;;5.88;1.20;;;;;;;;;;5029795;28;20493;-68
2023/12/11 05:20:00;;;;;;;2.97;0.98;;;;;;;;;;5045300;28;20772;-68
2023/12/11 05:22:27;;;;;;;4.60;0.90;;;;;;;;;;5047326;28;20430;-68
2023/12/11 05:24:54;;;;;;;3.50;1.00;;;;;;;;;;5050228;28;20965;-68
2023/12/11 05:27:22;;;;;;;4.57;0.90;;;;;;;;;;5050211;28;20448;-68
2023/12/11 05:29:49;;;;;;;5.05;1.20;;;;;;;;;;5042637;28;20423;-68
2023/12/11 05:32:16;;;;;;;6.70;1.45;;;;;;;;;;5044590;28;20428;-68
2023/12/11 05:34:43;;;;;;;6.70;1.50;;;;;;;;;;5042748;28;20476;-68
2023/12/11 05:37:11;;;;;;;6.10;1.40;;;;;;;;;;5049983;28;20444;-68
2023/12/11 05:39:38;;;;;;;4.82;1.65;;;;;;;;;;5047008;28;20517;-67
2023/12/11 05:42:13;;;;;;;3.75;1.10;;;;;;;;;;5042048;28;20437;-68
2023/12/11 05:44:40;;;;;;;3.58;1.23;;;;;;;;;;5047841;28;20433;-68
2023/12/11 05:47:07;;;;;;;3.58;0.93;;;;;;;;;;5048725;28;20512;-68
2023/12/11 05:49:34;;;;;;;7.05;1.48;;;;;;;;;;5047347;28;20430;-68
2023/12/11 05:52:02;;;;;;;3.47;1.20;;;;;;;;;;5029194;28;20437;-68
2023/12/11 05:54:29;;;;;;;5.00;1.15;;;;;;;;;;5045090;28;20457;-68
2023/12/11 05:56:56;;;;;;;6.43;1.20;;;;;;;;;;5044591;28;20459;-68
2023/12/11 05:59:23;;;;;;;3.50;1.25;;;;;;;;;;5048292;28;20428;-68
2023/12/11 06:01:51;;;;;;;3.20;1.20;;;;;;;;;;5046821;28;20961;-68
2023/12/11 06:04:18;;;;;;;5.65;1.30;;;;;;;;;;5046177;28;20469;-67
2023/12/11 06:06:46;;;;;;;6.80;1.33;;;;;;;;;;5047134;28;20823;-67
2023/12/11 06:09:14;;;;;;;5.03;1.23;;;;;;;;;;5045130;28;20429;-66
2023/12/11 06:11:41;;;;;;;3.27;1.20;;;;;;;;;;5043867;28;20441;-67
2023/12/11 06:14:10;;;;;;;5.93;1.25;;;;;;;;;;5044572;28;20429;-67
2023/12/11 06:16:37;;;;;;;4.27;1.37;;;;;;;;;;5027445;28;20439;-67
2023/12/11 06:19:04;;;;;;;5.75;1.27;;;;;;;;;;5035523;28;20491;-67
2023/12/11 06:21:32;;;;;;;4.85;1.40;;;;;;;;;;5034692;28;20435;-67
2023/12/11 06:23:59;;;;;;;3.73;1.00;;;;;;;;;;5042159;28;22507;-67
2023/12/11 06:26:30;;;;;;;3.73;1.00;;;;;;;;;;5055078;28;20520;-67
2023/12/11 06:28:59;;;;;;;3.60;1.00;;;;;;;;;;5043129;28;20782;-67
2023/12/11 06:31:29;;;;;;;2.60;0.90;;;;;;;;;;5046184;28;20504;-67
2023/12/11 06:33:57;;;;;;;3.95;0.90;;;;;;;;;;5035314;28;20448;-67
2023/12/11 06:36:26;;;;;;;4.45;0.98;;;;;;;;;;5043112;28;20911;-67
2023/12/11 06:38:53;;;;;;;2.40;0.90;;;;;;;;;;5027761;28;20917;-67
2023/12/11 06:41:20;;;;;;;2.90;0.82;;;;;;;;;;5046882;28;20425;-67
2023/12/11 06:43:48;;;;;;;3.17;1.08;;;;;;;;;;5034263;28;20434;-67
2023/12/11 06:46:16;;;;;;;2.47;0.90;;;;;;;;;;5037621;28;20461;-67
2023/12/11 06:48:43;;;;;;;4.35;1.58;;;;;;;;;;5041468;28;20487;-67
2023/12/11 06:51:11;;;;;;;2.65;1.10;;;;;;;;;;5045479;28;20476;-67
2023/12/11 06:53:38;;;;;;;3.33;1.00;;;;;;;;;;5037128;28;20967;-67
2023/12/11 06:56:05;;;;;;;2.53;1.00;;;;;;;;;;5041616;28;20461;-67
2023/12/11 06:58:33;;;;;;;3.45;1.27;;;;;;;;;;5038792;28;20429;-67
2023/12/11 07:01:00;;;;;;;3.78;1.05;;;;;;;;;;5042552;28;20495;-67
2023/12/11 07:03:28;;;;;;;2.90;1.30;;;;;;;;;;5038194;28;20434;-67
2023/12/11 07:05:55;;;;;;;2.47;1.20;;;;;;;;;;5034270;28;20818;-72
2023/12/11 07:08:22;;;;;;;2.50;1.20;;;;;;;;;;5043907;28;20429;-67
2023/12/11 07:10:50;;;;;;;1.50;0.80;;;;;;;;;;5028069;28;20439;-67
2023/12/11 07:13:17;;;;;;;2.35;1.20;;;;;;;;;;5042268;28;20524;-67
2023/12/11 07:15:44;;;;;;;4.77;1.00;;;;;;;;;;5035970;28;20521;-67
2023/12/11 07:18:13;;;;;;;2.70;1.00;;;;;;;;;;5035227;28;20441;-67
2023/12/11 07:20:44;;;;;;;2.60;0.98;;;;;;;;;;5035696;28;20429;-67
2023/12/11 07:23:11;;;;;;;2.60;1.00;;;;;;;;;;5021315;28;20764;-68
2023/12/11 07:25:38;;;;;;;2.90;1.05;;;;;;;;;;5038866;28;20437;-67
2023/12/11 07:28:06;;;;;;;1.98;1.05;;;;;;;;;;5042369;28;20912;-67
2023/12/11 07:30:33;;;;;;;3.45;1.20;;;;;;;;;;5038484;28;20429;-67
2023/12/11 07:33:01;;;;;;;2.42;0.88;;;;;;;;;;5036124;28;20435;-67
2023/12/11 07:35:28;;;;;;;2.28;0.70;;;;;;;;;;5041529;28;20501;-67
2023/12/11 07:37:55;;;;;;;4.10;1.23;;;;;;;;;;5023057;28;20782;-67
2023/12/11 07:40:22;;;;;;;4.03;1.27;;;;;;;;;;5034268;28;20438;-67
2023/12/11 07:42:50;;;;;;;3.90;0.82;;;;;;;;;;5044509;28;20981;-67
2023/12/11 07:45:18;;;;;;;2.33;0.80;;;;;;;;;;5031689;28;20902;-67
2023/12/11 07:47:45;;;;;;;2.45;0.70;;;;;;;;;;5042902;28;20487;-67
2023/12/11 07:50:12;;;;;;;2.70;0.70;;;;;;;;;;5039633;28;20437;-67
2023/12/11 07:52:41;;;;;;;3.67;0.82;;;;;;;;;;5038734;28;20860;-67
2023/12/11 07:55:08;;;;;;;4.28;0.88;;;;;;;;;;5040595;28;20438;-67
2023/12/11 07:57:36;;;;;;;4.03;1.30;;;;;;;;;;5025209;28;20437;-67
2023/12/11 08:00:05;;;;;;;3.25;0.90;;;;;;;;;;5051098;28;20433;-67
2023/12/11 08:02:32;;;;;;;5.38;1.48;;;;;;;;;;5042584;28;20461;-67
2023/12/11 08:04:59;;;;;;;2.50;0.88;;;;;;;;;;5041348;28;20441;-68
2023/12/11 08:07:27;;;;;;;4.25;1.02;;;;;;;;;;5037420;28;20427;-67
2023/12/11 08:09:54;;;;;;;5.88;1.08;;;;;;;;;;5043204;28;20917;-67
2023/12/11 08:12:21;;;;;;;3.87;1.20;;;;;;;;;;5038420;28;20433;-67
2023/12/11 08:14:49;;;;;;;4.70;1.20;;;;;;;;;;5037492;28;20443;-67
2023/12/11 08:17:16;;;;;;;4.82;1.08;;;;;;;;;;5039978;28;20461;-68
2023/12/11 08:19:44;;;;;;;3.92;0.95;;;;;;;;;;5042149;28;20433;-67
2023/12/11 08:22:12;;;;;;;3.30;0.90;;;;;;;;;;5043546;28;20428;-67
2023/12/11 08:24:39;;;;;;;4.28;1.10;;;;;;;;;;5044189;28;20927;-67
2023/12/11 08:27:07;;;;;;;4.88;1.23;;;;;;;;;;5048322;28;20444;-67
2023/12/11 08:29:38;;;;;;;6.90;1.38;;;;;;;;;;5036099;28;20421;-67
2023/12/11 08:32:05;;;;;;;3.87;1.07;;;;;;;;;;5047605;28;20431;-67
2023/12/11 08:34:36;;;;;;;7.30;1.75;;;;;;;;;;5026186;28;20461;-67
2023/12/11 08:37:04;;;;;;;5.70;1.10;;;;;;;;;;5037586;28;20522;-67
2023/12/11 08:39:31;;;;;;;5.95;1.20;;;;;;;;;;5038783;28;20428;-67
2023/12/11 08:41:58;;;;;;;3.08;0.90;;;;;;;;;;5032809;28;20431;-66
2023/12/11 08:44:25;;;;;;;4.40;1.30;;;;;;;;;;5039320;28;20428;-66
2023/12/11 08:46:52;;;;;;;5.10;1.13;;;;;;;;;;5040291;28;20508;-67
2023/12/11 08:49:20;;;;;;;6.65;1.60;;;;;;;;;;5025485;28;20483;-67
2023/12/11 08:51:47;;;;;;;7.47;1.10;;;;;;;;;;5020846;28;20444;-67
2023/12/11 08:54:14;;;;;;;5.30;1.20;;;;;;;;;;5025747;28;20435;-66
2023/12/11 08:56:42;;;;;;;7.63;1.65;;;;;;;;;;5023570;28;20496;-67
2023/12/11 08:59:09;;;;;;;5.20;1.20;;;;;;;;;;5038924;28;20425;-66
2023/12/11 09:01:37;;;;;;;4.88;1.23;;;;;;;;;;5052616;28;20886;-66
2023/12/11 09:04:05;;;;;;;5.85;1.17;;;;;;;;;;5045431;28;20964;-66
2023/12/11 09:06:32;;;;;;;5.05;1.10;;;;;;;;;;5046465;28;20457;-66
2023/12/11 09:08:59;;;;;;;5.15;1.02;;;;;;;;;;5046595;28;20892;-66
2023/12/11 09:11:27;;;;;;;7.03;1.60;;;;;;;;;;5049674;28;20426;-67
2023/12/11 09:13:54;;;;;;;7.87;1.60;;;;;;;;;;5042613;28;20509;-67
2023/12/11 09:16:21;;;;;;;6.40;1.45;;;;;;;;;;5044576;28;20516;-67
2023/12/11 09:18:48;;;;;;;7.68;1.45;;;;;;;;;;5036402;28;20513;-66
2023/12/11 09:21:16;;;;;;;5.93;1.27;;;;;;;;;;5038576;28;20436;-67
2023/12/11 09:23:43;;;;;;;6.23;1.63;;;;;;;;;;5044211;28;20487;-67
2023/12/11 09:26:10;;;;;;;5.68;1.55;;;;;;;;;;5044497;28;20437;-67
2023/12/11 09:28:39;;;;;;;7.90;1.40;;;;;;;;;;5049599;28;20429;-67
2023/12/11 09:31:19;;;;;;;6.57;1.20;;;;;;;;;;5042316;28;20437;-67
2023/12/11 09:33:46;;;;;;;6.10;1.65;;;;;;;;;;5040461;28;20520;-67
2023/12/11 09:36:14;;;;;;;7.63;1.70;;;;;;;;;;5048019;28;20433;-67
2023/12/11 09:38:42;;;;;;;7.57;1.50;;;;;;;;;;5030108;28;20433;-67
2023/12/11 09:41:10;;;;;;;4.55;1.20;;;;;;;;;;5043976;28;20432;-67
2023/12/11 09:43:37;;;;;;;5.32;1.85;;;;;;;;;;5040579;28;20442;-67
2023/12/11 09:46:06;;;;;;;6.32;1.48;;;;;;;;;;5048598;28;20421;-67
2023/12/11 09:48:34;;;;;;;7.00;1.48;;;;;;;;;;5045378;28;20433;-67
2023/12/11 09:51:02;;;;;;;6.65;1.63;;;;;;;;;;5039079;28;20431;-67
2023/12/11 09:53:33;;;;;;;6.07;1.55;;;;;;;;;;5046317;28;20437;-67
2023/12/11 09:56:00;;;;;;;6.07;1.50;;;;;;;;;;5046856;28;20438;-67
2023/12/11 09:58:28;;;;;;;5.40;1.40;;;;;;;;;;5043610;28;20511;-67
2023/12/11 10:01:00;;;;;;;7.97;2.35;;;;;;;;;;5046406;28;20437;-67
2023/12/11 10:03:29;;;;;;;5.33;1.47;;;;;;;;;;5050050;28;20444;-67
2023/12/11 10:05:59;;;;;;;5.80;1.50;;;;;;;;;;5040069;28;20819;-67
2023/12/11 10:08:27;;;;;;;6.68;1.65;;;;;;;;;;5024613;28;20528;-67
2023/12/11 10:11:13;;;;;;;5.85;1.45;;;;;;;;;;5039321;28;20430;-66
2023/12/11 10:13:40;;;;;;;6.95;1.83;;;;;;;;;;5045203;28;20469;-67
2023/12/11 10:16:26;;;;;;;7.53;1.67;;;;;;;;;;5041079;28;20510;-67
2023/12/11 10:18:53;;;;;;;9.55;1.63;;;;;;;;;;5036501;28;20439;-67
2023/12/11 10:21:24;;;;;;;8.63;1.88;;;;;;;;;;5029698;28;20795;-66
2023/12/11 10:24:04;;;;;;;7.82;1.90;;;;;;;;;;5051020;28;21116;-66
2023/12/11 10:26:36;;;;;;;8.02;1.60;;;;;;;;;;5047067;28;20425;-66
2023/12/11 10:29:23;;;;;;;5.47;2.30;;;;;;;;;;5054926;28;20751;-66
2023/12/11 10:31:51;;;;;;;7.20;1.63;;;;;;;;;;5050921;28;20461;-67
2023/12/11 10:34:18;;;;;;;9.30;2.27;;;;;;;;;;5060335;28;20431;-66
2023/12/11 10:36:52;;;;;;;11.25;1.85;;;;;;;;;;5043605;28;20444;-66
2023/12/11 10:39:19;;;;;;;5.95;1.50;;;;;;;;;;5049921;28;20427;-66
2023/12/11 10:41:49;;;;;;;8.40;1.40;;;;;;;;;;5037910;28;20430;-66
2023/12/11 10:44:24;;;;;;;8.60;1.83;;;;;;;;;;5034937;28;20811;-67
2023/12/11 10:47:11;;;;;;;7.28;1.77;;;;;;;;;;5031255;28;20499;-66
2023/12/11 10:49:40;;;;;;;7.80;1.50;;;;;;;;;;5048155;28;20476;-66
2023/12/11 10:52:07;;;;;;;9.00;1.75;;;;;;;;;;5044603;28;20427;-66
2023/12/11 10:54:38;;;;;;;7.57;1.90;;;;;;;;;;5042595;28;20713;-67
2023/12/11 10:57:08;;;;;;;9.20;2.25;;;;;;;;;;5045903;28;20435;-67
2023/12/11 10:59:38;;;;;;;8.35;2.00;;;;;;;;;;5042364;28;20479;-67
2023/12/11 11:02:06;;;;;;;6.17;1.77;;;;;;;;;;5042106;28;20514;-66
2023/12/11 11:04:36;;;;;;;7.93;1.50;;;;;;;;;;5028272;28;20431;-67
2023/12/11 11:07:03;;;;;;;5.45;1.80;;;;;;;;;;5028824;28;20501;-67
2023/12/11 11:09:34;;;;;;;10.27;1.80;;;;;;;;;;5042000;28;21115;-66
2023/12/11 11:12:11;;;;;;;8.77;1.90;;;;;;;;;;5047417;28;20510;-66
2023/12/11 11:14:44;;;;;;;8.27;1.63;;;;;;;;;;5042154;28;20464;-66
2023/12/11 11:17:12;;;;;;;8.23;1.70;;;;;;;;;;5046036;28;20498;-66
2023/12/11 11:19:58;;;;;;;7.10;1.92;;;;;;;;;;5047120;28;20429;-66
2023/12/11 11:22:25;;;;;;;6.80;1.67;;;;;;;;;;5051628;28;20440;-66
2023/12/11 11:25:23;;;;;;;7.82;1.45;;;;;;;;;;5046442;28;20430;-66
2023/12/11 11:27:50;;;;;;;4.80;1.83;;;;;;;;;;5037653;28;20433;-65
2023/12/11 11:30:37;;;;;;;7.15;1.40;;;;;;;;;;5035297;28;20427;-67
2023/12/11 11:33:06;;;;;;;9.05;1.73;;;;;;;;;;5039110;28;20438;-66
2023/12/11 11:35:45;;;;;;;7.03;1.30;;;;;;;;;;5034632;28;20437;-65
2023/12/11 11:38:13;;;;;;;6.93;1.60;;;;;;;;;;5036370;28;20439;-65
2023/12/11 11:40:43;;;;;;;8.90;2.35;;;;;;;;;;5056314;28;20423;-65
2023/12/11 11:43:11;;;;;;;6.90;1.63;;;;;;;;;;5033636;28;20456;-65
2023/12/11 11:45:38;;;;;;;8.13;1.67;;;;;;;;;;5044344;28;20508;-66
2023/12/11 11:48:06;;;;;;;6.28;1.60;;;;;;;;;;5043483;28;20437;-66
2023/12/11 11:50:35;;;;;;;8.02;1.83;;;;;;;;;;5040536;28;20502;-65
2023/12/11 11:53:07;;;;;;;5.47;1.58;;;;;;;;;;5044953;28;20448;-66
2023/12/11 11:55:36;;;;;;;4.97;1.40;;;;;;;;;;5029831;28;20769;-66
2023/12/11 11:58:13;;;;;;;6.47;1.42;;;;;;;;;;5037540;28;20436;-66
2023/12/11 12:00:40;;;;;;;5.73;1.70;;;;;;;;;;5034866;28;20445;-66
2023/12/11 12:03:08;;;;;;;6.33;1.37;;;;;;;;;;5037175;28;20909;-66
2023/12/11 12:05:36;;;;;;;6.97;1.58;;;;;;;;;;5041721;28;20453;-66
2023/12/11 12:08:10;;;;;;;5.55;1.40;;;;;;;;;;5040288;28;21084;-66
2023/12/11 12:10:37;;;;;;;6.45;1.50;;;;;;;;;;5037057;28;20437;-65
2023/12/11 12:13:05;;;;;;;7.65;1.27;;;;;;;;;;5036723;28;20439;-65
2023/12/11 12:15:42;;;;;;;7.35;1.70;;;;;;;;;;5043257;28;20472;-66
2023/12/11 12:18:09;;;;;;;6.95;1.60;;;;;;;;;;5041923;28;20433;-65
2023/12/11 12:20:37;;;;;;;5.22;1.23;;;;;;;;;;5045558;28;20915;-65
2023/12/11 12:23:05;;;;;;;5.68;1.27;;;;;;;;;;5038964;28;20504;-65
2023/12/11 12:25:33;;;;;;;6.57;1.42;;;;;;;;;;5042085;28;20425;-66
2023/12/11 12:28:08;;;;;;;4.60;1.40;;;;;;;;;;5037067;28;20433;-66
2023/12/11 12:30:36;;;;;;;5.43;1.63;;;;;;;;;;5044004;28;20436;-66
2023/12/11 12:33:05;;;;;;;4.28;1.58;;;;;;;;;;5033005;28;20488;-66
2023/12/11 12:35:34;;;;;;;6.35;1.50;;;;;;;;;;5040904;28;20447;-66
2023/12/11 12:38:02;;;;;;;6.20;1.40;;;;;;;;;;5043485;28;20465;-66
2023/12/11 12:40:33;;;;;;;6.05;1.52;;;;;;;;;;5037022;28;20435;-66
2023/12/11 12:43:01;;;;;;;7.95;1.25;;;;;;;;;;5051722;28;20428;-66
2023/12/11 12:45:28;;;;;;;8.55;1.60;;;;;;;;;;5044203;28;20439;-65
2023/12/11 12:48:03;;;;;;;7.05;1.50;;;;;;;;;;5038752;28;20946;-66
2023/12/11 12:50:31;;;;;;;4.93;1.25;;;;;;;;;;5046535;28;20457;-66
2023/12/11 12:53:05;;;;;;;3.90;1.40;;;;;;;;;;5042549;28;20436;-65
2023/12/11 12:55:33;;;;;;;4.88;1.40;;;;;;;;;;5046330;28;20425;-66
2023/12/11 12:58:00;;;;;;;4.45;1.55;;;;;;;;;;5045406;28;20513;-65
2023/12/11 13:00:28;;;;;;;5.47;1.25;;;;;;;;;;5047026;28;21059;-66
2023/12/11 13:02:55;;;;;;;7.60;1.80;;;;;;;;;;5043180;28;20437;-66
2023/12/11 13:05:36;;;;;;;7.18;1.73;;;;;;;;;;5050701;28;20427;-65
2023/12/11 13:08:04;;;;;;;4.78;1.40;;;;;;;;;;5035606;28;21189;-66
2023/12/11 13:10:31;;;;;;;4.35;1.33;;;;;;;;;;5036459;28;20504;-65
2023/12/11 13:12:58;;;;;;;4.50;1.30;;;;;;;;;;5045358;28;20926;-66
2023/12/11 13:15:26;;;;;;;6.18;1.48;;;;;;;;;;5029104;28;20912;-66
2023/12/11 13:17:54;;;;;;;5.40;1.20;;;;;;;;;;5042416;28;20440;-66
2023/12/11 13:20:21;;;;;;;6.32;1.38;;;;;;;;;;5050480;28;20785;-66
2023/12/11 13:22:49;;;;;;;10.23;1.13;;;;;;;;;;5050656;28;20450;-66
2023/12/11 13:25:16;;;;;;;5.00;1.50;;;;;;;;;;5050041;28;20461;-66
2023/12/11 13:27:47;;;;;;;4.65;1.42;;;;;;;;;;5043448;28;20437;-66
2023/12/11 13:30:18;;;;;;;5.33;1.30;;;;;;;;;;5040199;28;20463;-66
2023/12/11 13:32:45;;;;;;;5.20;1.65;;;;;;;;;;5042225;28;20825;-66
2023/12/11 13:35:13;;;;;;;4.97;1.30;;;;;;;;;;5046120;28;20507;-66
2023/12/11 13:37:40;;;;;;;5.78;1.30;;;;;;;;;;5044067;28;20425;-66
2023/12/11 13:40:08;;;;;;;6.07;1.38;;;;;;;;;;5043904;28;20473;-66
2023/12/11 13:42:36;;;;;;;3.75;1.27;;;;;;;;;;5025125;28;20460;-66
2023/12/11 13:45:04;;;;;;;6.88;1.48;;;;;;;;;;5043918;28;20848;-66
2023/12/11 13:47:32;;;;;;;4.33;1.20;;;;;;;;;;5041184;28;20462;-66
2023/12/11 13:50:00;;;;;;;6.45;1.08;;;;;;;;;;5035340;28;20944;-66
2023/12/11 13:52:27;;;;;;;7.22;1.50;;;;;;;;;;5044905;28;20483;-66
2023/12/11 13:54:54;;;;;;;6.95;1.50;;;;;;;;;;5042589;28;20436;-66
2023/12/11 13:57:22;;;;;;;4.80;1.35;;;;;;;;;;5049004;28;20429;-66
2023/12/11 13:59:49;;;;;;;5.35;1.08;;;;;;;;;;5046628;28;20964;-66
2023/12/11 14:02:16;;;;;;;4.90;1.10;;;;;;;;;;5046921;28;20435;-66
2023/12/11 14:05:04;;;;;;;7.70;1.47;;;;;;;;;;5043855;28;20444;-66
2023/12/11 14:07:33;;;;;;;5.40;1.17;;;;;;;;;;5045839;28;20425;-66
2023/12/11 14:10:00;;;;;;;4.68;1.40;;;;;;;;;;5040009;28;20434;-66
2023/12/11 14:12:28;;;;;;;6.80;1.23;;;;;;;;;;5044013;28;20525;-66
2023/12/11 14:14:55;;;;;;;4.63;1.20;;;;;;;;;;5047799;28;20445;-67
2023/12/11 14:17:22;;;;;;;5.30;1.55;;;;;;;;;;5040481;28;20433;-66
2023/12/11 14:19:50;;;;;;;4.05;1.13;;;;;;;;;;5035436;28;20926;-66
2023/12/11 14:22:18;;;;;;;4.00;1.67;;;;;;;;;;5041756;28;20461;-67
2023/12/11 14:24:45;;;;;;;4.83;1.10;;;;;;;;;;5048769;28;20955;-67
2023/12/11 14:27:13;;;;;;;3.40;1.00;;;;;;;;;;5038324;28;21047;-67
2023/12/11 14:29:44;;;;;;;4.30;1.30;;;;;;;;;;5038002;28;20508;-66
2023/12/11 14:32:11;;;;;;;2.60;1.00;;;;;;;;;;5037390;28;20733;-66
2023/12/11 14:34:43;;;;;;;5.43;1.33;;;;;;;;;;5051561;28;20459;-66
2023/12/11 14:37:12;;;;;;;7.32;1.17;;;;;;;;;;5038036;28;20452;-66
2023/12/11 14:39:41;;;;;;;4.53;1.30;;;;;;;;;;5023339;28;20432;-66
2023/12/11 14:42:09;;;;;;;5.03;1.13;;;;;;;;;;5041565;28;20476;-66
2023/12/11 14:44:37;;;;;;;3.97;1.25;;;;;;;;;;5032442;28;20497;-65
2023/12/11 14:47:04;;;;;;;7.63;1.50;;;;;;;;;;5036122;28;21356;-67
2023/12/11 14:49:31;;;;;;;3.53;0.93;;;;;;;;;;5037883;28;20961;-66
2023/12/11 14:52:00;;;;;;;3.78;1.17;;;;;;;;;;5043117;28;20473;-66